sensor_id;sensor_type;location;lat;lon;timestamp;P1;durP1;ratioP1;P2;durP2;ratioP2
2053;SDS011;1032;52.542;13.440;2022-10-22T00:00:21;23.63;;;20.53;;
2053;SDS011;1032;52.542;13.440;2022-10-22T00:02:49;26.23;;;21.43;;
2053;SDS011;1032;52.542;13.440;2022-10-22T00:05:15;24.90;;;22.20;;
2053;SDS011;1032;52.542;13.440;2022-10-22T00:07:42;25.97;;;22.77;;
2053;SDS011;1032;52.542;13.440;2022-10-22T00:10:09;28.97;;;23.10;;
2053;SDS011;1032;52.542;13.440;2022-10-22T00:12:36;28.17;;;23.87;;
2053;SDS011;1032;52.542;13.440;2022-10-22T00:15:05;23.83;;;19.90;;
2053;SDS011;1032;52.542;13.440;2022-10-22T00:17:32;25.20;;;20.43;;
2053;SDS011;1032;52.542;13.440;2022-10-22T00:20:00;21.90;;;18.90;;
2053;SDS011;1032;52.542;13.440;2022-10-22T00:22:26;23.77;;;21.17;;
2053;SDS011;1032;52.542;13.440;2022-10-22T00:24:53;20.30;;;18.10;;
2053;SDS011;1032;52.542;13.440;2022-10-22T00:27:19;23.27;;;19.97;;
2053;SDS011;1032;52.542;13.440;2022-10-22T00:29:46;26.90;;;20.03;;
2053;SDS011;1032;52.542;13.440;2022-10-22T00:32:14;20.17;;;16.90;;
2053;SDS011;1032;52.542;13.440;2022-10-22T00:34:41;17.43;;;15.63;;
2053;SDS011;1032;52.542;13.440;2022-10-22T00:37:07;19.90;;;17.83;;
2053;SDS011;1032;52.542;13.440;2022-10-22T00:39:34;20.30;;;16.90;;
2053;SDS011;1032;52.542;13.440;2022-10-22T00:42:01;18.50;;;16.70;;
2053;SDS011;1032;52.542;13.440;2022-10-22T00:47:51;21.93;;;19.23;;
2053;SDS011;1032;52.542;13.440;2022-10-22T00:50:22;24.53;;;19.70;;
2053;SDS011;1032;52.542;13.440;2022-10-22T00:52:52;23.87;;;19.60;;
2053;SDS011;1032;52.542;13.440;2022-10-22T00:55:20;23.57;;;18.40;;
2053;SDS011;1032;52.542;13.440;2022-10-22T00:57:48;20.80;;;18.13;;
2053;SDS011;1032;52.542;13.440;2022-10-22T01:00:15;23.30;;;19.90;;
2053;SDS011;1032;52.542;13.440;2022-10-22T01:02:42;19.13;;;17.23;;
2053;SDS011;1032;52.542;13.440;2022-10-22T01:05:10;19.43;;;16.70;;
2053;SDS011;1032;52.542;13.440;2022-10-22T01:07:39;20.37;;;17.80;;
2053;SDS011;1032;52.542;13.440;2022-10-22T01:10:09;24.73;;;19.30;;
2053;SDS011;1032;52.542;13.440;2022-10-22T01:12:44;19.00;;;16.80;;
2053;SDS011;1032;52.542;13.440;2022-10-22T01:15:18;19.60;;;17.60;;
2053;SDS011;1032;52.542;13.440;2022-10-22T01:17:52;17.80;;;16.03;;
2053;SDS011;1032;52.542;13.440;2022-10-22T01:20:37;21.43;;;17.50;;
2053;SDS011;1032;52.542;13.440;2022-10-22T01:23:24;19.03;;;17.00;;
2053;SDS011;1032;52.542;13.440;2022-10-22T01:26:11;20.27;;;17.90;;
2053;SDS011;1032;52.542;13.440;2022-10-22T01:28:50;21.03;;;18.27;;
2053;SDS011;1032;52.542;13.440;2022-10-22T01:31:23;22.23;;;18.93;;
2053;SDS011;1032;52.542;13.440;2022-10-22T01:33:53;17.97;;;16.07;;
2053;SDS011;1032;52.542;13.440;2022-10-22T01:36:20;19.50;;;16.67;;
2053;SDS011;1032;52.542;13.440;2022-10-22T01:38:47;20.97;;;18.07;;
2053;SDS011;1032;52.542;13.440;2022-10-22T01:41:15;22.83;;;19.97;;
2053;SDS011;1032;52.542;13.440;2022-10-22T01:43:42;20.23;;;17.00;;
2053;SDS011;1032;52.542;13.440;2022-10-22T01:46:10;19.70;;;17.43;;
2053;SDS011;1032;52.542;13.440;2022-10-22T01:48:44;19.33;;;17.20;;
2053;SDS011;1032;52.542;13.440;2022-10-22T01:51:27;23.93;;;19.93;;
2053;SDS011;1032;52.542;13.440;2022-10-22T01:54:04;25.60;;;19.80;;
2053;SDS011;1032;52.542;13.440;2022-10-22T01:56:41;24.83;;;19.90;;
2053;SDS011;1032;52.542;13.440;2022-10-22T01:59:21;26.20;;;19.70;;
2053;SDS011;1032;52.542;13.440;2022-10-22T02:02:01;18.73;;;16.87;;
2053;SDS011;1032;52.542;13.440;2022-10-22T02:04:32;26.60;;;20.70;;
2053;SDS011;1032;52.542;13.440;2022-10-22T02:07:01;22.17;;;19.47;;
2053;SDS011;1032;52.542;13.440;2022-10-22T02:09:31;22.07;;;19.67;;
2053;SDS011;1032;52.542;13.440;2022-10-22T02:12:01;22.70;;;18.67;;
2053;SDS011;1032;52.542;13.440;2022-10-22T02:14:29;20.80;;;17.50;;
2053;SDS011;1032;52.542;13.440;2022-10-22T02:16:57;20.13;;;17.23;;
2053;SDS011;1032;52.542;13.440;2022-10-22T02:19:27;21.10;;;16.40;;
2053;SDS011;1032;52.542;13.440;2022-10-22T02:22:00;19.80;;;17.57;;
2053;SDS011;1032;52.542;13.440;2022-10-22T02:24:27;27.30;;;19.27;;
2053;SDS011;1032;52.542;13.440;2022-10-22T02:26:57;16.23;;;14.60;;
2053;SDS011;1032;52.542;13.440;2022-10-22T02:29:29;23.47;;;19.70;;
2053;SDS011;1032;52.542;13.440;2022-10-22T02:32:02;22.87;;;19.20;;
2053;SDS011;1032;52.542;13.440;2022-10-22T02:34:32;20.37;;;18.20;;
2053;SDS011;1032;52.542;13.440;2022-10-22T02:36:58;28.47;;;18.40;;
2053;SDS011;1032;52.542;13.440;2022-10-22T02:39:27;23.03;;;19.13;;
2053;SDS011;1032;52.542;13.440;2022-10-22T02:41:55;26.67;;;19.17;;
2053;SDS011;1032;52.542;13.440;2022-10-22T02:44:22;19.90;;;16.80;;
2053;SDS011;1032;52.542;13.440;2022-10-22T02:46:49;16.37;;;13.77;;
2053;SDS011;1032;52.542;13.440;2022-10-22T02:49:17;23.00;;;17.90;;
2053;SDS011;1032;52.542;13.440;2022-10-22T02:51:44;20.53;;;16.77;;
2053;SDS011;1032;52.542;13.440;2022-10-22T02:54:10;22.17;;;16.80;;
2053;SDS011;1032;52.542;13.440;2022-10-22T02:56:37;19.13;;;16.33;;
2053;SDS011;1032;52.542;13.440;2022-10-22T02:59:03;24.20;;;17.97;;
2053;SDS011;1032;52.542;13.440;2022-10-22T03:01:30;21.70;;;18.50;;
2053;SDS011;1032;52.542;13.440;2022-10-22T03:03:57;17.63;;;14.80;;
2053;SDS011;1032;52.542;13.440;2022-10-22T03:06:24;19.10;;;16.60;;
2053;SDS011;1032;52.542;13.440;2022-10-22T03:08:51;23.57;;;16.47;;
2053;SDS011;1032;52.542;13.440;2022-10-22T03:11:18;22.80;;;19.00;;
2053;SDS011;1032;52.542;13.440;2022-10-22T03:13:44;21.40;;;19.10;;
2053;SDS011;1032;52.542;13.440;2022-10-22T03:16:11;24.50;;;19.63;;
2053;SDS011;1032;52.542;13.440;2022-10-22T03:18:38;24.33;;;19.00;;
2053;SDS011;1032;52.542;13.440;2022-10-22T03:21:07;24.77;;;19.03;;
2053;SDS011;1032;52.542;13.440;2022-10-22T03:23:39;23.00;;;18.33;;
2053;SDS011;1032;52.542;13.440;2022-10-22T03:26:08;22.57;;;19.30;;
2053;SDS011;1032;52.542;13.440;2022-10-22T03:28:37;21.30;;;17.97;;
2053;SDS011;1032;52.542;13.440;2022-10-22T03:31:05;18.10;;;15.60;;
2053;SDS011;1032;52.542;13.440;2022-10-22T03:33:32;23.50;;;19.60;;
2053;SDS011;1032;52.542;13.440;2022-10-22T03:35:59;22.30;;;17.93;;
2053;SDS011;1032;52.542;13.440;2022-10-22T03:38:26;24.70;;;19.07;;
2053;SDS011;1032;52.542;13.440;2022-10-22T03:40:54;20.80;;;18.27;;
2053;SDS011;1032;52.542;13.440;2022-10-22T03:43:20;18.43;;;15.97;;
2053;SDS011;1032;52.542;13.440;2022-10-22T03:45:47;23.53;;;18.40;;
2053;SDS011;1032;52.542;13.440;2022-10-22T03:48:13;23.83;;;19.27;;
2053;SDS011;1032;52.542;13.440;2022-10-22T03:50:40;19.40;;;16.77;;
2053;SDS011;1032;52.542;13.440;2022-10-22T03:53:07;23.67;;;18.20;;
2053;SDS011;1032;52.542;13.440;2022-10-22T03:55:34;21.13;;;17.10;;
2053;SDS011;1032;52.542;13.440;2022-10-22T03:58:03;20.93;;;17.67;;
2053;SDS011;1032;52.542;13.440;2022-10-22T04:00:30;22.80;;;18.50;;
2053;SDS011;1032;52.542;13.440;2022-10-22T04:02:57;21.13;;;16.40;;
2053;SDS011;1032;52.542;13.440;2022-10-22T04:05:24;22.77;;;17.83;;
2053;SDS011;1032;52.542;13.440;2022-10-22T04:07:50;18.73;;;16.00;;
2053;SDS011;1032;52.542;13.440;2022-10-22T04:10:17;20.23;;;16.70;;
2053;SDS011;1032;52.542;13.440;2022-10-22T04:12:45;24.40;;;17.50;;
2053;SDS011;1032;52.542;13.440;2022-10-22T04:15:13;19.67;;;17.23;;
2053;SDS011;1032;52.542;13.440;2022-10-22T04:17:40;19.60;;;17.50;;
2053;SDS011;1032;52.542;13.440;2022-10-22T04:20:07;23.37;;;17.90;;
2053;SDS011;1032;52.542;13.440;2022-10-22T04:22:35;21.80;;;17.40;;
2053;SDS011;1032;52.542;13.440;2022-10-22T04:25:02;20.03;;;16.43;;
2053;SDS011;1032;52.542;13.440;2022-10-22T04:27:29;18.17;;;16.00;;
2053;SDS011;1032;52.542;13.440;2022-10-22T04:29:56;25.27;;;18.97;;
2053;SDS011;1032;52.542;13.440;2022-10-22T04:32:24;26.43;;;18.53;;
2053;SDS011;1032;52.542;13.440;2022-10-22T04:34:50;21.87;;;18.00;;
2053;SDS011;1032;52.542;13.440;2022-10-22T04:37:17;22.57;;;17.57;;
2053;SDS011;1032;52.542;13.440;2022-10-22T04:39:44;18.17;;;16.20;;
2053;SDS011;1032;52.542;13.440;2022-10-22T04:42:11;21.67;;;17.80;;
2053;SDS011;1032;52.542;13.440;2022-10-22T04:44:37;17.90;;;15.70;;
2053;SDS011;1032;52.542;13.440;2022-10-22T04:47:04;18.40;;;15.40;;
2053;SDS011;1032;52.542;13.440;2022-10-22T04:49:32;24.63;;;17.13;;
2053;SDS011;1032;52.542;13.440;2022-10-22T04:51:58;22.03;;;16.83;;
2053;SDS011;1032;52.542;13.440;2022-10-22T04:54:25;20.03;;;17.80;;
2053;SDS011;1032;52.542;13.440;2022-10-22T04:56:52;21.80;;;17.33;;
2053;SDS011;1032;52.542;13.440;2022-10-22T04:59:18;21.03;;;16.73;;
2053;SDS011;1032;52.542;13.440;2022-10-22T05:01:45;18.67;;;16.77;;
2053;SDS011;1032;52.542;13.440;2022-10-22T05:04:12;22.43;;;16.60;;
2053;SDS011;1032;52.542;13.440;2022-10-22T05:06:42;20.30;;;17.83;;
2053;SDS011;1032;52.542;13.440;2022-10-22T05:09:10;19.30;;;17.20;;
2053;SDS011;1032;52.542;13.440;2022-10-22T05:11:39;21.77;;;17.43;;
2053;SDS011;1032;52.542;13.440;2022-10-22T05:14:09;21.80;;;17.00;;
2053;SDS011;1032;52.542;13.440;2022-10-22T05:16:37;19.73;;;17.43;;
2053;SDS011;1032;52.542;13.440;2022-10-22T05:19:04;19.63;;;17.20;;
2053;SDS011;1032;52.542;13.440;2022-10-22T05:21:31;22.67;;;17.90;;
2053;SDS011;1032;52.542;13.440;2022-10-22T05:23:59;24.87;;;17.87;;
2053;SDS011;1032;52.542;13.440;2022-10-22T05:26:26;23.07;;;17.70;;
2053;SDS011;1032;52.542;13.440;2022-10-22T05:28:53;21.97;;;15.90;;
2053;SDS011;1032;52.542;13.440;2022-10-22T05:31:20;24.30;;;19.17;;
2053;SDS011;1032;52.542;13.440;2022-10-22T05:33:47;24.53;;;19.60;;
2053;SDS011;1032;52.542;13.440;2022-10-22T05:36:14;25.63;;;19.10;;
2053;SDS011;1032;52.542;13.440;2022-10-22T05:38:42;20.60;;;16.90;;
2053;SDS011;1032;52.542;13.440;2022-10-22T05:41:11;22.13;;;17.10;;
2053;SDS011;1032;52.542;13.440;2022-10-22T05:43:39;20.63;;;17.13;;
2053;SDS011;1032;52.542;13.440;2022-10-22T05:46:07;16.73;;;14.97;;
2053;SDS011;1032;52.542;13.440;2022-10-22T05:48:35;26.30;;;18.93;;
2053;SDS011;1032;52.542;13.440;2022-10-22T05:51:01;21.47;;;17.67;;
2053;SDS011;1032;52.542;13.440;2022-10-22T05:53:29;23.43;;;17.57;;
2053;SDS011;1032;52.542;13.440;2022-10-22T05:55:58;21.07;;;17.10;;
2053;SDS011;1032;52.542;13.440;2022-10-22T05:58:27;28.43;;;19.30;;
2053;SDS011;1032;52.542;13.440;2022-10-22T06:00:59;27.70;;;18.40;;
2053;SDS011;1032;52.542;13.440;2022-10-22T06:03:26;23.73;;;18.87;;
2053;SDS011;1032;52.542;13.440;2022-10-22T06:05:53;25.73;;;19.30;;
2053;SDS011;1032;52.542;13.440;2022-10-22T06:08:20;20.20;;;18.10;;
2053;SDS011;1032;52.542;13.440;2022-10-22T06:10:47;23.63;;;17.13;;
2053;SDS011;1032;52.542;13.440;2022-10-22T06:13:13;19.40;;;16.33;;
2053;SDS011;1032;52.542;13.440;2022-10-22T06:15:41;20.37;;;18.17;;
2053;SDS011;1032;52.542;13.440;2022-10-22T06:18:08;21.20;;;16.60;;
2053;SDS011;1032;52.542;13.440;2022-10-22T06:20:36;21.10;;;17.10;;
2053;SDS011;1032;52.542;13.440;2022-10-22T06:23:02;22.33;;;17.37;;
2053;SDS011;1032;52.542;13.440;2022-10-22T06:25:29;26.50;;;18.43;;
2053;SDS011;1032;52.542;13.440;2022-10-22T06:27:55;22.77;;;17.87;;
2053;SDS011;1032;52.542;13.440;2022-10-22T06:30:22;25.43;;;20.20;;
2053;SDS011;1032;52.542;13.440;2022-10-22T06:32:50;27.13;;;20.33;;
2053;SDS011;1032;52.542;13.440;2022-10-22T06:35:16;22.83;;;19.20;;
2053;SDS011;1032;52.542;13.440;2022-10-22T06:37:43;26.17;;;18.80;;
2053;SDS011;1032;52.542;13.440;2022-10-22T06:40:11;25.33;;;20.33;;
2053;SDS011;1032;52.542;13.440;2022-10-22T06:42:38;19.63;;;16.63;;
2053;SDS011;1032;52.542;13.440;2022-10-22T06:45:05;17.67;;;15.80;;
2053;SDS011;1032;52.542;13.440;2022-10-22T06:47:33;19.73;;;17.60;;
2053;SDS011;1032;52.542;13.440;2022-10-22T06:50:01;22.70;;;19.53;;
2053;SDS011;1032;52.542;13.440;2022-10-22T06:52:27;21.40;;;17.23;;
2053;SDS011;1032;52.542;13.440;2022-10-22T06:54:54;22.37;;;16.57;;
2053;SDS011;1032;52.542;13.440;2022-10-22T06:57:20;25.20;;;19.03;;
2053;SDS011;1032;52.542;13.440;2022-10-22T06:59:47;21.23;;;18.90;;
2053;SDS011;1032;52.542;13.440;2022-10-22T07:02:14;21.43;;;16.53;;
2053;SDS011;1032;52.542;13.440;2022-10-22T07:04:40;20.13;;;16.47;;
2053;SDS011;1032;52.542;13.440;2022-10-22T07:07:08;16.93;;;15.13;;
2053;SDS011;1032;52.542;13.440;2022-10-22T07:09:35;25.10;;;17.53;;
2053;SDS011;1032;52.542;13.440;2022-10-22T07:12:03;25.80;;;15.60;;
2053;SDS011;1032;52.542;13.440;2022-10-22T07:14:30;21.40;;;19.10;;
2053;SDS011;1032;52.542;13.440;2022-10-22T07:16:57;20.67;;;17.27;;
2053;SDS011;1032;52.542;13.440;2022-10-22T07:19:23;21.20;;;18.37;;
2053;SDS011;1032;52.542;13.440;2022-10-22T07:21:50;23.23;;;19.00;;
2053;SDS011;1032;52.542;13.440;2022-10-22T07:24:17;21.13;;;17.73;;
2053;SDS011;1032;52.542;13.440;2022-10-22T07:26:44;21.67;;;18.37;;
2053;SDS011;1032;52.542;13.440;2022-10-22T07:29:11;23.33;;;18.20;;
2053;SDS011;1032;52.542;13.440;2022-10-22T07:31:39;20.40;;;18.20;;
2053;SDS011;1032;52.542;13.440;2022-10-22T07:34:06;21.00;;;18.80;;
2053;SDS011;1032;52.542;13.440;2022-10-22T07:36:33;21.37;;;19.07;;
2053;SDS011;1032;52.542;13.440;2022-10-22T07:38:59;19.40;;;17.30;;
2053;SDS011;1032;52.542;13.440;2022-10-22T07:41:28;26.97;;;20.57;;
2053;SDS011;1032;52.542;13.440;2022-10-22T07:43:55;23.00;;;19.10;;
2053;SDS011;1032;52.542;13.440;2022-10-22T07:46:22;22.40;;;18.90;;
2053;SDS011;1032;52.542;13.440;2022-10-22T07:48:50;23.07;;;18.57;;
2053;SDS011;1032;52.542;13.440;2022-10-22T07:51:16;22.00;;;19.57;;
2053;SDS011;1032;52.542;13.440;2022-10-22T07:53:43;25.13;;;19.00;;
2053;SDS011;1032;52.542;13.440;2022-10-22T07:56:10;19.97;;;17.87;;
2053;SDS011;1032;52.542;13.440;2022-10-22T07:58:39;21.93;;;17.00;;
2053;SDS011;1032;52.542;13.440;2022-10-22T08:01:06;24.30;;;18.20;;
2053;SDS011;1032;52.542;13.440;2022-10-22T08:03:32;18.37;;;16.50;;
2053;SDS011;1032;52.542;13.440;2022-10-22T08:06:00;20.50;;;16.83;;
2053;SDS011;1032;52.542;13.440;2022-10-22T08:08:27;19.63;;;17.60;;
2053;SDS011;1032;52.542;13.440;2022-10-22T08:10:54;17.13;;;15.43;;
2053;SDS011;1032;52.542;13.440;2022-10-22T08:13:22;22.87;;;18.90;;
2053;SDS011;1032;52.542;13.440;2022-10-22T08:15:51;20.73;;;17.03;;
2053;SDS011;1032;52.542;13.440;2022-10-22T08:18:18;18.90;;;17.00;;
2053;SDS011;1032;52.542;13.440;2022-10-22T08:20:44;16.90;;;15.27;;
2053;SDS011;1032;52.542;13.440;2022-10-22T08:23:11;17.77;;;15.83;;
2053;SDS011;1032;52.542;13.440;2022-10-22T08:25:38;19.40;;;15.90;;
2053;SDS011;1032;52.542;13.440;2022-10-22T08:28:04;15.67;;;14.07;;
2053;SDS011;1032;52.542;13.440;2022-10-22T08:30:31;16.10;;;14.47;;
2053;SDS011;1032;52.542;13.440;2022-10-22T08:32:59;17.73;;;16.03;;
2053;SDS011;1032;52.542;13.440;2022-10-22T08:35:25;15.43;;;14.03;;
2053;SDS011;1032;52.542;13.440;2022-10-22T08:37:52;17.33;;;15.17;;
2053;SDS011;1032;52.542;13.440;2022-10-22T08:40:20;19.20;;;16.73;;
2053;SDS011;1032;52.542;13.440;2022-10-22T08:42:57;18.57;;;16.53;;
2053;SDS011;1032;52.542;13.440;2022-10-22T08:45:38;16.53;;;14.80;;
2053;SDS011;1032;52.542;13.440;2022-10-22T08:48:16;18.63;;;15.60;;
2053;SDS011;1032;52.542;13.440;2022-10-22T08:50:54;14.80;;;13.33;;
2053;SDS011;1032;52.542;13.440;2022-10-22T08:53:24;18.30;;;15.27;;
2053;SDS011;1032;52.542;13.440;2022-10-22T08:55:57;14.60;;;13.07;;
2053;SDS011;1032;52.542;13.440;2022-10-22T08:58:24;19.53;;;15.70;;
2053;SDS011;1032;52.542;13.440;2022-10-22T09:00:58;15.97;;;14.30;;
2053;SDS011;1032;52.542;13.440;2022-10-22T09:03:30;23.17;;;16.07;;
2053;SDS011;1032;52.542;13.440;2022-10-22T09:06:04;17.07;;;14.40;;
2053;SDS011;1032;52.542;13.440;2022-10-22T09:08:35;16.50;;;14.80;;
2053;SDS011;1032;52.542;13.440;2022-10-22T09:11:05;15.43;;;13.90;;
2053;SDS011;1032;52.542;13.440;2022-10-22T09:13:39;17.00;;;13.90;;
2053;SDS011;1032;52.542;13.440;2022-10-22T09:16:10;17.73;;;15.10;;
2053;SDS011;1032;52.542;13.440;2022-10-22T09:18:43;15.40;;;13.70;;
2053;SDS011;1032;52.542;13.440;2022-10-22T09:21:20;15.43;;;13.93;;
2053;SDS011;1032;52.542;13.440;2022-10-22T09:23:56;16.73;;;15.00;;
2053;SDS011;1032;52.542;13.440;2022-10-22T09:26:29;14.13;;;11.90;;
2053;SDS011;1032;52.542;13.440;2022-10-22T09:28:58;16.80;;;14.60;;
2053;SDS011;1032;52.542;13.440;2022-10-22T09:31:26;17.03;;;13.93;;
2053;SDS011;1032;52.542;13.440;2022-10-22T09:33:58;16.77;;;14.47;;
2053;SDS011;1032;52.542;13.440;2022-10-22T09:36:31;17.50;;;14.47;;
2053;SDS011;1032;52.542;13.440;2022-10-22T09:38:58;15.73;;;14.00;;
2053;SDS011;1032;52.542;13.440;2022-10-22T09:41:26;15.80;;;14.17;;
2053;SDS011;1032;52.542;13.440;2022-10-22T09:43:55;17.07;;;15.20;;
2053;SDS011;1032;52.542;13.440;2022-10-22T09:46:22;14.77;;;13.30;;
2053;SDS011;1032;52.542;13.440;2022-10-22T09:48:57;15.20;;;13.47;;
2053;SDS011;1032;52.542;13.440;2022-10-22T09:51:35;15.07;;;13.57;;
2053;SDS011;1032;52.542;13.440;2022-10-22T09:54:12;17.40;;;13.87;;
2053;SDS011;1032;52.542;13.440;2022-10-22T09:56:41;16.57;;;14.53;;
2053;SDS011;1032;52.542;13.440;2022-10-22T09:59:16;14.83;;;13.43;;
2053;SDS011;1032;52.542;13.440;2022-10-22T10:01:54;16.27;;;13.20;;
2053;SDS011;1032;52.542;13.440;2022-10-22T10:04:24;17.90;;;14.93;;
2053;SDS011;1032;52.542;13.440;2022-10-22T10:06:52;16.20;;;14.23;;
2053;SDS011;1032;52.542;13.440;2022-10-22T10:09:21;17.67;;;14.80;;
2053;SDS011;1032;52.542;13.440;2022-10-22T10:11:51;19.33;;;14.43;;
2053;SDS011;1032;52.542;13.440;2022-10-22T10:14:24;17.23;;;14.30;;
2053;SDS011;1032;52.542;13.440;2022-10-22T10:17:04;16.60;;;14.97;;
2053;SDS011;1032;52.542;13.440;2022-10-22T10:19:48;16.53;;;13.50;;
2053;SDS011;1032;52.542;13.440;2022-10-22T10:22:29;14.03;;;12.67;;
2053;SDS011;1032;52.542;13.440;2022-10-22T10:25:13;18.40;;;15.00;;
2053;SDS011;1032;52.542;13.440;2022-10-22T10:27:52;16.93;;;13.97;;
2053;SDS011;1032;52.542;13.440;2022-10-22T10:30:24;20.50;;;15.53;;
2053;SDS011;1032;52.542;13.440;2022-10-22T10:32:54;17.23;;;15.20;;
2053;SDS011;1032;52.542;13.440;2022-10-22T10:35:35;18.90;;;15.13;;
2053;SDS011;1032;52.542;13.440;2022-10-22T10:38:14;16.10;;;14.20;;
2053;SDS011;1032;52.542;13.440;2022-10-22T10:40:53;20.07;;;14.63;;
2053;SDS011;1032;52.542;13.440;2022-10-22T10:43:26;14.97;;;13.30;;
2053;SDS011;1032;52.542;13.440;2022-10-22T10:46:02;19.57;;;14.63;;
2053;SDS011;1032;52.542;13.440;2022-10-22T10:48:40;15.53;;;13.53;;
2053;SDS011;1032;52.542;13.440;2022-10-22T10:51:17;14.90;;;13.40;;
2053;SDS011;1032;52.542;13.440;2022-10-22T10:53:59;14.20;;;12.70;;
2053;SDS011;1032;52.542;13.440;2022-10-22T10:56:38;18.87;;;16.83;;
2053;SDS011;1032;52.542;13.440;2022-10-22T10:59:11;20.23;;;16.63;;
2053;SDS011;1032;52.542;13.440;2022-10-22T11:01:46;18.23;;;15.40;;
2053;SDS011;1032;52.542;13.440;2022-10-22T11:04:38;17.37;;;15.47;;
2053;SDS011;1032;52.542;13.440;2022-10-22T11:07:17;23.60;;;15.47;;
2053;SDS011;1032;52.542;13.440;2022-10-22T11:09:49;16.80;;;15.20;;
2053;SDS011;1032;52.542;13.440;2022-10-22T11:12:22;17.43;;;15.67;;
2053;SDS011;1032;52.542;13.440;2022-10-22T11:14:54;22.10;;;15.77;;
2053;SDS011;1032;52.542;13.440;2022-10-22T11:17:25;18.83;;;16.73;;
2053;SDS011;1032;52.542;13.440;2022-10-22T11:20:02;25.93;;;14.43;;
2053;SDS011;1032;52.542;13.440;2022-10-22T11:22:34;23.73;;;16.57;;
2053;SDS011;1032;52.542;13.440;2022-10-22T11:25:11;19.27;;;17.37;;
2053;SDS011;1032;52.542;13.440;2022-10-22T11:27:44;17.87;;;15.27;;
2053;SDS011;1032;52.542;13.440;2022-10-22T11:30:14;17.23;;;15.00;;
2053;SDS011;1032;52.542;13.440;2022-10-22T11:32:42;20.77;;;17.20;;
2053;SDS011;1032;52.542;13.440;2022-10-22T11:35:13;23.43;;;18.50;;
2053;SDS011;1032;52.542;13.440;2022-10-22T11:37:44;22.03;;;19.23;;
2053;SDS011;1032;52.542;13.440;2022-10-22T11:40:13;30.37;;;20.73;;
2053;SDS011;1032;52.542;13.440;2022-10-22T11:42:44;19.53;;;17.23;;
2053;SDS011;1032;52.542;13.440;2022-10-22T11:45:26;22.97;;;17.73;;
2053;SDS011;1032;52.542;13.440;2022-10-22T11:47:57;22.83;;;20.60;;
2053;SDS011;1032;52.542;13.440;2022-10-22T11:50:42;22.60;;;20.20;;
2053;SDS011;1032;52.542;13.440;2022-10-22T11:53:20;23.23;;;21.07;;
2053;SDS011;1032;52.542;13.440;2022-10-22T11:55:55;21.83;;;18.50;;
2053;SDS011;1032;52.542;13.440;2022-10-22T11:58:28;22.33;;;20.20;;
2053;SDS011;1032;52.542;13.440;2022-10-22T12:00:57;21.93;;;18.50;;
2053;SDS011;1032;52.542;13.440;2022-10-22T12:03:47;23.23;;;20.77;;
2053;SDS011;1032;52.542;13.440;2022-10-22T12:06:19;23.10;;;20.80;;
2053;SDS011;1032;52.542;13.440;2022-10-22T12:08:53;20.40;;;18.33;;
2053;SDS011;1032;52.542;13.440;2022-10-22T12:11:24;21.37;;;17.87;;
2053;SDS011;1032;52.542;13.440;2022-10-22T12:14:00;19.03;;;16.73;;
2053;SDS011;1032;52.542;13.440;2022-10-22T12:16:44;18.30;;;16.57;;
2053;SDS011;1032;52.542;13.440;2022-10-22T12:19:12;21.60;;;16.77;;
2053;SDS011;1032;52.542;13.440;2022-10-22T12:21:42;22.97;;;15.37;;
2053;SDS011;1032;52.542;13.440;2022-10-22T12:24:14;15.90;;;14.23;;
2053;SDS011;1032;52.542;13.440;2022-10-22T12:26:44;15.60;;;14.10;;
2053;SDS011;1032;52.542;13.440;2022-10-22T12:29:14;16.37;;;14.50;;
2053;SDS011;1032;52.542;13.440;2022-10-22T12:31:43;20.60;;;14.80;;
2053;SDS011;1032;52.542;13.440;2022-10-22T12:34:14;18.67;;;14.57;;
2053;SDS011;1032;52.542;13.440;2022-10-22T12:36:42;14.03;;;12.53;;
2053;SDS011;1032;52.542;13.440;2022-10-22T12:39:12;18.37;;;13.90;;
2053;SDS011;1032;52.542;13.440;2022-10-22T12:41:41;14.33;;;12.90;;
2053;SDS011;1032;52.542;13.440;2022-10-22T12:44:10;15.70;;;12.80;;
2053;SDS011;1032;52.542;13.440;2022-10-22T12:46:38;15.73;;;11.67;;
2053;SDS011;1032;52.542;13.440;2022-10-22T12:49:07;14.00;;;11.83;;
2053;SDS011;1032;52.542;13.440;2022-10-22T12:51:38;12.03;;;10.83;;
2053;SDS011;1032;52.542;13.440;2022-10-22T12:54:06;11.67;;;10.40;;
2053;SDS011;1032;52.542;13.440;2022-10-22T12:56:35;13.83;;;9.83;;
2053;SDS011;1032;52.542;13.440;2022-10-22T12:59:04;16.07;;;14.30;;
2053;SDS011;1032;52.542;13.440;2022-10-22T13:01:33;9.37;;;8.37;;
2053;SDS011;1032;52.542;13.440;2022-10-22T13:04:03;8.70;;;7.80;;
2053;SDS011;1032;52.542;13.440;2022-10-22T13:06:32;16.77;;;8.57;;
2053;SDS011;1032;52.542;13.440;2022-10-22T13:09:12;11.47;;;8.43;;
2053;SDS011;1032;52.542;13.440;2022-10-22T13:11:47;7.90;;;5.87;;
2053;SDS011;1032;52.542;13.440;2022-10-22T13:14:18;15.60;;;6.20;;
2053;SDS011;1032;52.542;13.440;2022-10-22T13:17:02;7.53;;;5.80;;
2053;SDS011;1032;52.542;13.440;2022-10-22T13:19:38;9.30;;;6.17;;
2053;SDS011;1032;52.542;13.440;2022-10-22T13:22:23;11.83;;;6.27;;
2053;SDS011;1032;52.542;13.440;2022-10-22T13:24:52;10.40;;;6.17;;
2053;SDS011;1032;52.542;13.440;2022-10-22T13:27:22;9.57;;;5.37;;
2053;SDS011;1032;52.542;13.440;2022-10-22T13:29:49;10.73;;;7.00;;
2053;SDS011;1032;52.542;13.440;2022-10-22T13:32:25;12.27;;;5.27;;
2053;SDS011;1032;52.542;13.440;2022-10-22T13:34:55;8.47;;;6.00;;
2053;SDS011;1032;52.542;13.440;2022-10-22T13:37:25;9.07;;;6.23;;
2053;SDS011;1032;52.542;13.440;2022-10-22T13:39:54;13.23;;;7.00;;
2053;SDS011;1032;52.542;13.440;2022-10-22T13:42:22;5.90;;;4.77;;
2053;SDS011;1032;52.542;13.440;2022-10-22T13:44:49;10.97;;;6.13;;
2053;SDS011;1032;52.542;13.440;2022-10-22T13:47:20;8.17;;;5.50;;
2053;SDS011;1032;52.542;13.440;2022-10-22T13:49:51;8.50;;;5.90;;
2053;SDS011;1032;52.542;13.440;2022-10-22T13:52:24;13.03;;;5.50;;
2053;SDS011;1032;52.542;13.440;2022-10-22T13:54:59;7.23;;;6.33;;
2053;SDS011;1032;52.542;13.440;2022-10-22T13:57:27;10.33;;;5.80;;
2053;SDS011;1032;52.542;13.440;2022-10-22T13:59:54;9.67;;;6.10;;
2053;SDS011;1032;52.542;13.440;2022-10-22T14:02:20;10.60;;;5.60;;
2053;SDS011;1032;52.542;13.440;2022-10-22T14:04:48;9.20;;;5.33;;
2053;SDS011;1032;52.542;13.440;2022-10-22T14:07:16;7.83;;;4.63;;
2053;SDS011;1032;52.542;13.440;2022-10-22T14:09:43;13.17;;;4.80;;
2053;SDS011;1032;52.542;13.440;2022-10-22T14:12:11;6.43;;;4.33;;
2053;SDS011;1032;52.542;13.440;2022-10-22T14:14:40;10.83;;;4.60;;
2053;SDS011;1032;52.542;13.440;2022-10-22T14:17:10;7.83;;;5.43;;
2053;SDS011;1032;52.542;13.440;2022-10-22T14:19:41;8.33;;;4.80;;
2053;SDS011;1032;52.542;13.440;2022-10-22T14:22:11;9.57;;;4.70;;
2053;SDS011;1032;52.542;13.440;2022-10-22T14:24:38;13.10;;;5.00;;
2053;SDS011;1032;52.542;13.440;2022-10-22T14:27:05;10.83;;;5.10;;
2053;SDS011;1032;52.542;13.440;2022-10-22T14:29:33;8.50;;;4.57;;
2053;SDS011;1032;52.542;13.440;2022-10-22T14:32:01;9.90;;;5.10;;
2053;SDS011;1032;52.542;13.440;2022-10-22T14:34:27;8.47;;;4.30;;
2053;SDS011;1032;52.542;13.440;2022-10-22T14:36:54;9.67;;;4.20;;
2053;SDS011;1032;52.542;13.440;2022-10-22T14:39:21;4.90;;;3.80;;
2053;SDS011;1032;52.542;13.440;2022-10-22T14:41:47;7.90;;;5.20;;
2053;SDS011;1032;52.542;13.440;2022-10-22T14:44:14;11.70;;;4.70;;
2053;SDS011;1032;52.542;13.440;2022-10-22T14:46:40;12.33;;;5.83;;
2053;SDS011;1032;52.542;13.440;2022-10-22T14:49:09;6.20;;;4.93;;
2053;SDS011;1032;52.542;13.440;2022-10-22T14:51:36;6.17;;;4.30;;
2053;SDS011;1032;52.542;13.440;2022-10-22T14:54:02;7.03;;;3.77;;
2053;SDS011;1032;52.542;13.440;2022-10-22T14:56:29;6.83;;;4.60;;